sim
Sign-in with your pilot id or email,
or register
Callsign
Passwort

Schedule Details

Flight Number: EWG1812
Departure: Munich Airport (EDDM) at 05:30
Arrival: Fuerteventura Airport (GCFV) at 10:10
Route: Eurowings Passenger Schedule. Enter filed route here before submitting Pirep.

Weather Information
Getting current METAR information for EDDM 172320Z VRB02KT CAVOK 17/14 Q1015 NOSIG
Getting current METAR information for GCFV 172330Z AUTO 02009KT 9999 NCD 23/20 Q1014

Schedule Frequency

Route Map